Time;durP1;ratioP1;P1;durP2;ratioP2;P2;SDS_P1;SDS_P2;PMS_P1;PMS_P2;Temp;Humidity;BMP_temperature;BMP_pressure;BME280_temperature;BME280_humidity;BME280_pressure;Samples;Min_cycle;Max_cycle;Signal;HPM_P1;HPM_P2
2024/04/06 00:02:21;;;;;;;16.73;3.92;;;12.40;99.90;;;;;;5060538;28;20190;-67
2024/04/06 00:04:48;;;;;;;14.88;3.33;;;12.40;99.90;;;;;;5060579;28;20536;-67
2024/04/06 00:07:14;;;;;;;20.60;3.70;;;12.40;99.90;;;;;;5057705;28;20186;-68
2024/04/06 00:09:39;;;;;;;15.05;3.35;;;12.40;99.90;;;;;;5060155;28;20178;-67
2024/04/06 00:12:05;;;;;;;17.10;3.03;;;12.40;99.90;;;;;;5058566;28;20257;-68
2024/04/06 00:14:31;;;;;;;19.75;3.50;;;12.40;99.90;;;;;;5061194;28;20190;-68
2024/04/06 00:16:57;;;;;;;18.05;3.90;;;12.40;99.90;;;;;;5059994;28;20190;-68
2024/04/06 00:19:23;;;;;;;16.13;3.58;;;12.40;99.90;;;;;;5059448;28;20186;-68
2024/04/06 00:21:48;;;;;;;20.77;3.38;;;12.40;99.90;;;;;;5058410;28;20209;-67
2024/04/06 00:24:16;;;;;;;14.23;3.17;;;12.30;99.90;;;;;;5043110;28;20182;-66
2024/04/06 00:26:42;;;;;;;16.35;3.33;;;12.30;99.90;;;;;;5059643;28;20185;-67
2024/04/06 00:29:08;;;;;;;18.10;3.25;;;12.30;99.90;;;;;;5040239;28;20194;-67
2024/04/06 00:31:33;;;;;;;14.20;3.20;;;12.20;99.90;;;;;;5054483;28;20184;-68
2024/04/06 00:34:02;;;;;;;13.55;3.08;;;12.20;99.90;;;;;;5040935;28;20615;-69
2024/04/06 00:36:31;;;;;;;17.17;3.88;;;12.10;99.90;;;;;;5059225;28;20530;-68
2024/04/06 00:38:58;;;;;;;18.55;3.63;;;12.10;99.90;;;;;;5058079;28;20202;-67
2024/04/06 00:41:23;;;;;;;18.55;3.33;;;12.10;99.90;;;;;;5058661;28;20235;-67
2024/04/06 00:43:49;;;;;;;12.40;3.08;;;12.10;99.90;;;;;;5058157;28;20183;-67
2024/04/06 00:46:16;;;;;;;13.23;2.97;;;12.10;99.90;;;;;;5039994;28;20186;-68
2024/04/06 00:48:42;;;;;;;17.33;3.55;;;12.10;99.90;;;;;;5058647;28;20189;-67
2024/04/06 00:51:07;;;;;;;16.55;3.35;;;12.10;99.90;;;;;;5056130;28;20202;-67
2024/04/06 00:53:33;;;;;;;12.57;3.33;;;12.10;99.90;;;;;;5058215;28;20186;-67
2024/04/06 00:56:00;;;;;;;20.17;3.78;;;12.20;99.90;;;;;;5059486;28;20194;-67
2024/04/06 00:58:27;;;;;;;17.15;3.70;;;12.20;99.90;;;;;;5056895;28;20186;-67
2024/04/06 01:00:53;;;;;;;16.35;3.78;;;12.20;99.90;;;;;;5058692;28;20198;-68
2024/04/06 01:03:19;;;;;;;12.68;3.38;;;12.20;99.90;;;;;;5055964;28;20608;-69
2024/04/06 01:05:45;;;;;;;16.50;3.30;;;12.30;99.90;;;;;;5040076;28;20186;-67
2024/04/06 01:08:10;;;;;;;17.75;3.30;;;12.30;99.90;;;;;;5041824;28;20209;-68
2024/04/06 01:10:37;;;;;;;15.60;3.38;;;12.30;99.90;;;;;;5038687;28;20642;-67
2024/04/06 01:13:02;;;;;;;21.00;3.20;;;12.30;99.90;;;;;;5058007;28;20202;-68
2024/04/06 01:15:32;;;;;;;16.02;3.58;;;12.30;99.90;;;;;;5057634;28;20620;-68
2024/04/06 01:17:58;;;;;;;15.93;3.58;;;12.30;99.90;;;;;;5058936;28;20190;-68
2024/04/06 01:20:26;;;;;;;16.10;3.42;;;12.30;99.90;;;;;;5040452;28;20222;-68
2024/04/06 01:22:52;;;;;;;16.83;3.85;;;12.30;99.90;;;;;;5055740;28;20983;-68
2024/04/06 01:25:17;;;;;;;16.00;3.70;;;12.30;99.90;;;;;;5056558;28;20190;-68
2024/04/06 01:27:44;;;;;;;17.52;3.72;;;12.30;99.90;;;;;;5057891;28;20583;-68
2024/04/06 01:30:14;;;;;;;13.75;3.50;;;12.40;99.90;;;;;;5056736;28;20186;-68
2024/04/06 01:32:51;;;;;;;17.65;3.42;;;12.40;99.90;;;;;;5040063;28;20186;-66
2024/04/06 01:35:17;;;;;;;12.93;3.13;;;12.40;99.90;;;;;;5057448;28;20205;-66
2024/04/06 01:37:44;;;;;;;16.70;3.78;;;12.40;99.90;;;;;;5055770;28;20190;-67
2024/04/06 01:40:11;;;;;;;16.58;3.95;;;12.40;99.90;;;;;;5054969;28;20250;-68
2024/04/06 01:42:37;;;;;;;15.80;3.60;;;12.40;99.90;;;;;;5039764;28;20245;-68
2024/04/06 01:45:03;;;;;;;18.17;4.15;;;12.40;99.90;;;;;;5057458;28;20261;-68
2024/04/06 01:47:29;;;;;;;17.75;3.92;;;12.40;99.90;;;;;;5022721;28;20197;-67
2024/04/06 01:49:56;;;;;;;17.15;4.07;;;12.40;99.90;;;;;;5057016;28;20204;-69
2024/04/06 01:52:22;;;;;;;13.57;3.92;;;12.40;99.90;;;;;;5056823;28;20191;-68
2024/04/06 01:54:47;;;;;;;16.63;3.85;;;12.40;99.90;;;;;;5057290;28;20814;-68
2024/04/06 01:57:13;;;;;;;19.45;3.88;;;12.40;99.90;;;;;;5038542;28;20193;-68
2024/04/06 01:59:40;;;;;;;16.00;3.80;;;12.40;99.90;;;;;;5039014;28;20191;-67
2024/04/06 02:02:06;;;;;;;18.17;4.35;;;12.40;99.90;;;;;;5058584;28;20210;-68
2024/04/06 02:04:32;;;;;;;15.75;3.85;;;12.30;99.90;;;;;;5008181;28;20201;-66
2024/04/06 02:06:58;;;;;;;20.15;4.25;;;12.30;99.90;;;;;;5054442;28;20191;-68
2024/04/06 02:09:24;;;;;;;19.05;4.10;;;12.30;99.90;;;;;;5058896;28;20206;-67
2024/04/06 02:11:50;;;;;;;17.92;4.20;;;12.20;99.90;;;;;;5055283;28;20326;-68
2024/04/06 02:14:15;;;;;;;19.85;4.50;;;12.20;99.90;;;;;;5040562;28;20591;-68
2024/04/06 02:16:41;;;;;;;15.20;4.05;;;12.20;99.90;;;;;;5061196;28;20256;-67
2024/04/06 02:19:07;;;;;;;15.02;4.00;;;12.20;99.90;;;;;;5059975;28;20187;-68
2024/04/06 02:21:32;;;;;;;17.90;4.47;;;12.20;99.90;;;;;;5061008;28;20206;-66
2024/04/06 02:23:58;;;;;;;17.10;4.18;;;12.20;99.90;;;;;;5060636;28;20183;-67
2024/04/06 02:26:24;;;;;;;14.38;4.10;;;12.20;99.90;;;;;;5043019;28;20563;-67
2024/04/06 02:28:50;;;;;;;11.05;3.50;;;12.20;99.90;;;;;;5060664;28;20182;-68
2024/04/06 02:31:15;;;;;;;15.95;4.35;;;12.20;99.90;;;;;;5059123;28;20281;-68
2024/04/06 02:33:41;;;;;;;19.88;4.22;;;12.30;99.90;;;;;;5060462;28;20175;-68
2024/04/06 02:36:07;;;;;;;18.52;3.90;;;12.30;99.90;;;;;;5043648;28;20190;-67
2024/04/06 02:38:33;;;;;;;12.38;3.70;;;12.30;99.90;;;;;;5058791;28;20217;-66
2024/04/06 02:40:59;;;;;;;20.13;4.30;;;12.40;99.90;;;;;;5060299;28;20341;-67
2024/04/06 02:43:24;;;;;;;13.40;4.22;;;12.40;99.90;;;;;;5060034;28;20230;-66
2024/04/06 02:45:50;;;;;;;18.92;3.83;;;12.40;99.90;;;;;;5059426;28;20191;-67
2024/04/06 02:48:16;;;;;;;15.07;4.03;;;12.40;99.90;;;;;;5059401;28;20191;-67
2024/04/06 02:50:42;;;;;;;22.58;4.20;;;12.50;99.90;;;;;;5057336;28;20194;-67
2024/04/06 02:53:08;;;;;;;18.45;4.15;;;12.50;99.90;;;;;;5058863;28;20205;-67
2024/04/06 02:55:34;;;;;;;23.48;4.95;;;12.50;99.90;;;;;;5060912;28;20244;-67
2024/04/06 02:58:00;;;;;;;18.23;4.35;;;12.50;99.90;;;;;;5059576;28;20191;-68
2024/04/06 03:00:26;;;;;;;18.63;4.20;;;12.50;99.90;;;;;;5061034;28;20207;-67
2024/04/06 03:02:51;;;;;;;18.90;4.40;;;12.60;99.90;;;;;;5060999;28;20236;-66
2024/04/06 03:05:18;;;;;;;18.85;4.47;;;12.60;99.90;;;;;;5058307;28;20706;-66
2024/04/06 03:07:44;;;;;;;18.88;4.63;;;12.60;99.90;;;;;;5027515;28;20186;-67
2024/04/06 03:10:11;;;;;;;16.40;3.97;;;12.60;99.90;;;;;;5040588;28;20187;-68
2024/04/06 03:12:37;;;;;;;15.98;4.38;;;12.60;99.90;;;;;;5060470;28;20662;-68
2024/04/06 03:15:03;;;;;;;19.73;4.60;;;12.70;99.90;;;;;;5061443;28;20213;-67
2024/04/06 03:17:29;;;;;;;15.32;4.50;;;12.60;99.90;;;;;;5058687;28;20539;-67
2024/04/06 03:19:55;;;;;;;20.63;4.72;;;12.70;99.90;;;;;;5060661;28;20224;-66
2024/04/06 03:22:20;;;;;;;22.75;4.68;;;12.70;99.90;;;;;;5058251;28;20597;-67
2024/04/06 03:24:47;;;;;;;19.80;3.95;;;12.70;99.90;;;;;;5042274;28;20193;-68
2024/04/06 03:27:12;;;;;;;21.25;4.70;;;12.70;99.90;;;;;;5059472;28;20259;-67
2024/04/06 03:29:38;;;;;;;16.42;4.00;;;12.70;99.90;;;;;;5040508;28;20575;-67
2024/04/06 03:32:04;;;;;;;17.25;4.47;;;12.70;99.90;;;;;;5060307;28;20276;-69
2024/04/06 03:34:30;;;;;;;18.00;4.47;;;12.70;99.90;;;;;;5060735;28;20265;-68
2024/04/06 03:36:56;;;;;;;18.73;4.45;;;12.70;99.90;;;;;;5060095;28;20219;-67
2024/04/06 03:39:21;;;;;;;15.48;3.80;;;12.70;99.90;;;;;;5060464;28;20276;-66
2024/04/06 03:41:47;;;;;;;18.40;4.40;;;12.70;99.90;;;;;;5041033;28;20443;-67
2024/04/06 03:44:13;;;;;;;14.85;4.10;;;12.60;99.90;;;;;;5059419;28;20194;-66
2024/04/06 03:46:39;;;;;;;17.10;4.45;;;12.60;99.90;;;;;;5059119;28;20204;-68
2024/04/06 03:49:05;;;;;;;20.75;4.35;;;12.60;99.90;;;;;;5058276;28;20285;-66
2024/04/06 03:51:30;;;;;;;13.63;4.00;;;12.60;99.90;;;;;;5059662;28;20278;-67
2024/04/06 03:53:56;;;;;;;20.88;4.70;;;12.50;99.90;;;;;;5039057;28;20194;-67
2024/04/06 03:56:22;;;;;;;21.58;4.60;;;12.50;99.90;;;;;;5058490;28;20219;-68
2024/04/06 03:58:47;;;;;;;15.50;4.57;;;12.50;99.90;;;;;;5060629;28;20264;-66
2024/04/06 04:01:13;;;;;;;14.60;4.32;;;12.50;99.90;;;;;;5038757;28;20214;-68
2024/04/06 04:03:39;;;;;;;17.48;3.90;;;12.40;99.90;;;;;;5058733;28;20178;-67
2024/04/06 04:06:06;;;;;;;17.67;4.60;;;12.40;99.90;;;;;;5058684;28;20676;-67
2024/04/06 04:08:32;;;;;;;16.02;4.80;;;12.40;99.90;;;;;;5056866;28;20174;-67
2024/04/06 04:10:58;;;;;;;14.10;4.80;;;12.30;99.90;;;;;;5056573;28;20195;-68
2024/04/06 04:13:24;;;;;;;22.13;5.18;;;12.30;99.90;;;;;;5055668;28;20197;-67
2024/04/06 04:15:50;;;;;;;16.73;5.00;;;12.30;99.90;;;;;;5059186;28;20672;-67
2024/04/06 04:18:16;;;;;;;17.45;5.22;;;12.40;99.90;;;;;;5052591;28;20210;-69
2024/04/06 04:20:42;;;;;;;14.43;4.78;;;12.40;99.90;;;;;;5057239;28;20299;-67
2024/04/06 04:23:09;;;;;;;14.10;4.97;;;12.40;99.90;;;;;;5057390;28;20673;-67
2024/04/06 04:25:36;;;;;;;14.75;5.22;;;12.50;99.90;;;;;;5041682;28;20178;-69
2024/04/06 04:28:02;;;;;;;15.15;5.28;;;12.50;99.90;;;;;;5056818;28;20195;-67
2024/04/06 04:30:27;;;;;;;14.13;5.88;;;12.60;99.90;;;;;;5040367;28;20205;-67
2024/04/06 04:32:53;;;;;;;15.65;5.35;;;12.60;99.90;;;;;;5040703;28;20650;-68
2024/04/06 04:35:20;;;;;;;18.73;6.25;;;12.60;99.90;;;;;;5058074;28;20269;-68
2024/04/06 04:37:46;;;;;;;19.92;6.05;;;12.70;99.90;;;;;;5059682;28;20197;-67
2024/04/06 04:40:12;;;;;;;17.52;6.38;;;12.70;99.90;;;;;;5057669;28;20256;-67
2024/04/06 04:42:38;;;;;;;21.20;7.20;;;12.70;99.90;;;;;;5057060;28;20724;-67
2024/04/06 04:45:14;;;;;;;17.38;6.50;;;12.80;99.90;;;;;;5058587;28;20647;-67
2024/04/06 04:47:43;;;;;;;14.80;7.28;;;12.80;99.90;;;;;;5034254;28;20186;-68
2024/04/06 04:50:09;;;;;;;14.10;6.90;;;12.80;99.90;;;;;;5058041;28;20249;-67
2024/04/06 04:52:35;;;;;;;16.63;7.40;;;12.90;99.90;;;;;;5040016;28;20210;-68
2024/04/06 04:55:01;;;;;;;16.42;8.10;;;12.90;99.90;;;;;;5058482;28;20198;-68
2024/04/06 04:57:27;;;;;;;20.38;8.25;;;12.90;99.90;;;;;;5056558;28;20729;-67
2024/04/06 04:59:52;;;;;;;15.13;8.00;;;13.00;99.90;;;;;;5059055;28;20677;-67
2024/04/06 05:02:18;;;;;;;16.23;8.52;;;12.90;99.90;;;;;;5058223;28;20190;-66
2024/04/06 05:04:44;;;;;;;20.10;9.15;;;13.00;99.90;;;;;;5057406;28;20642;-67
2024/04/06 05:07:10;;;;;;;20.70;9.32;;;13.00;99.90;;;;;;5040137;28;20194;-68
2024/04/06 05:09:36;;;;;;;17.33;9.18;;;13.00;99.90;;;;;;5059613;28;20196;-67
2024/04/06 05:12:02;;;;;;;20.23;9.10;;;13.00;99.90;;;;;;5057292;28;20233;-68
2024/04/06 05:14:28;;;;;;;20.42;9.90;;;13.00;99.90;;;;;;5057557;28;20194;-66
2024/04/06 05:16:54;;;;;;;23.58;10.73;;;12.90;99.90;;;;;;5058150;28;20191;-68
2024/04/06 05:19:20;;;;;;;23.85;10.15;;;12.90;99.90;;;;;;5057488;28;20194;-69
2024/04/06 05:21:46;;;;;;;22.25;10.10;;;12.90;99.90;;;;;;5038679;28;20213;-68
2024/04/06 05:24:12;;;;;;;21.38;10.68;;;12.90;99.90;;;;;;5056852;28;20190;-67
2024/04/06 05:26:41;;;;;;;18.20;10.73;;;12.90;99.90;;;;;;5040793;28;20198;-66
2024/04/06 05:29:07;;;;;;;18.08;10.68;;;12.90;99.90;;;;;;5058270;28;20768;-69
2024/04/06 05:31:33;;;;;;;20.45;10.68;;;13.00;99.90;;;;;;5055945;28;20273;-68
2024/04/06 05:33:59;;;;;;;23.15;10.85;;;13.00;99.90;;;;;;5036789;28;20294;-67
2024/04/06 05:36:25;;;;;;;18.38;10.48;;;13.10;99.90;;;;;;5056602;28;20191;-67
2024/04/06 05:38:50;;;;;;;16.95;10.27;;;13.10;99.90;;;;;;5058813;28;20195;-67
2024/04/06 05:41:16;;;;;;;23.23;11.10;;;13.20;99.90;;;;;;5056677;28;20210;-67
2024/04/06 05:43:42;;;;;;;21.13;10.10;;;13.30;99.90;;;;;;5057423;28;20280;-67
2024/04/06 05:46:07;;;;;;;15.95;10.10;;;13.40;99.90;;;;;;5040886;28;20593;-68
2024/04/06 05:48:33;;;;;;;19.00;9.70;;;13.40;99.90;;;;;;5039711;28;20572;-67
2024/04/06 05:50:59;;;;;;;15.68;9.98;;;13.50;99.90;;;;;;5060822;28;20194;-68
2024/04/06 05:53:25;;;;;;;16.95;10.27;;;13.60;99.90;;;;;;5059414;28;20687;-67
2024/04/06 05:55:51;;;;;;;15.40;9.93;;;13.60;99.90;;;;;;5060856;28;20768;-67
2024/04/06 05:58:17;;;;;;;18.08;11.23;;;13.70;99.90;;;;;;5061028;28;20285;-67
2024/04/06 06:00:42;;;;;;;17.65;10.20;;;13.60;99.90;;;;;;5041327;28;20258;-68
2024/04/06 06:03:08;;;;;;;17.25;10.00;;;13.70;99.90;;;;;;5042548;28;20196;-66
2024/04/06 06:05:34;;;;;;;15.70;9.85;;;13.70;99.90;;;;;;5042478;28;20212;-67
2024/04/06 06:08:00;;;;;;;18.23;9.90;;;13.80;99.90;;;;;;5061184;28;20186;-68
2024/04/06 06:10:26;;;;;;;18.95;10.05;;;13.80;99.90;;;;;;5043794;28;20182;-67
2024/04/06 06:12:52;;;;;;;15.40;9.30;;;13.80;99.90;;;;;;5058358;28;20190;-66
2024/04/06 06:15:18;;;;;;;16.13;9.52;;;13.80;99.90;;;;;;5061629;28;20554;-68
2024/04/06 06:17:43;;;;;;;15.65;9.30;;;13.90;99.90;;;;;;5042771;28;20644;-67
2024/04/06 06:20:09;;;;;;;15.70;10.13;;;14.00;99.90;;;;;;5060829;28;20211;-69
2024/04/06 06:22:35;;;;;;;17.65;9.93;;;14.00;99.90;;;;;;5060657;28;20199;-66
2024/04/06 06:25:03;;;;;;;15.48;9.68;;;14.00;99.90;;;;;;5058756;28;20190;-67
2024/04/06 06:27:29;;;;;;;15.80;9.95;;;14.00;99.90;;;;;;5059736;28;20267;-67
2024/04/06 06:29:55;;;;;;;16.98;10.13;;;14.10;99.90;;;;;;5060079;28;21279;-67
2024/04/06 06:32:20;;;;;;;17.67;10.07;;;14.10;99.90;;;;;;5059388;28;20186;-67
2024/04/06 06:34:46;;;;;;;13.90;9.32;;;14.10;99.90;;;;;;5060343;28;20701;-66
2024/04/06 06:37:12;;;;;;;13.20;9.57;;;14.10;99.90;;;;;;5060232;28;20511;-69
2024/04/06 06:39:38;;;;;;;16.75;10.20;;;14.10;99.90;;;;;;5059797;28;20357;-68
2024/04/06 06:42:04;;;;;;;14.45;9.93;;;14.00;99.90;;;;;;5042122;28;20222;-69
2024/04/06 06:44:30;;;;;;;14.80;10.02;;;14.00;99.90;;;;;;5040554;28;20225;-67
2024/04/06 06:46:56;;;;;;;14.57;9.32;;;14.10;99.90;;;;;;5058188;28;20199;-68
2024/04/06 06:49:22;;;;;;;14.35;8.60;;;14.10;99.90;;;;;;5060263;28;20233;-66
2024/04/06 06:51:47;;;;;;;11.18;7.22;;;14.10;99.90;;;;;;5041597;28;20214;-68
2024/04/06 06:54:13;;;;;;;12.30;7.70;;;14.20;99.90;;;;;;5060803;28;20193;-68
2024/04/06 06:56:39;;;;;;;11.50;7.00;;;14.30;99.90;;;;;;5059341;28;20179;-70
2024/04/06 06:59:05;;;;;;;18.98;7.82;;;14.40;99.90;;;;;;5061350;28;20191;-69
2024/04/06 07:01:30;;;;;;;12.63;7.20;;;14.50;99.90;;;;;;5059564;28;20297;-65
2024/04/06 07:03:56;;;;;;;10.00;6.60;;;14.70;99.90;;;;;;5058466;28;20194;-67
2024/04/06 07:06:22;;;;;;;10.77;6.80;;;14.80;99.90;;;;;;5060626;28;20236;-66
2024/04/06 07:08:48;;;;;;;8.80;6.07;;;14.90;99.90;;;;;;5059482;28;20187;-68
2024/04/06 07:11:14;;;;;;;12.80;5.97;;;15.00;99.90;;;;;;5059187;28;20187;-67
2024/04/06 07:13:40;;;;;;;12.27;6.03;;;15.10;99.90;;;;;;5058815;28;20183;-67
2024/04/06 07:16:11;;;;;;;9.10;5.85;;;15.20;99.90;;;;;;5057134;28;20305;-68
2024/04/06 07:18:38;;;;;;;9.98;5.18;;;15.20;99.90;;;;;;5059791;28;20623;-67
2024/04/06 07:21:07;;;;;;;8.32;5.65;;;15.30;99.90;;;;;;5057899;28;20711;-67
2024/04/06 07:23:32;;;;;;;11.80;5.32;;;15.30;99.90;;;;;;5058522;28;20187;-69
2024/04/06 07:25:58;;;;;;;8.13;4.80;;;15.40;99.90;;;;;;5059611;28;20281;-68
2024/04/06 07:28:24;;;;;;;12.38;4.80;;;15.50;99.90;;;;;;5057436;28;20403;-67
2024/04/06 07:30:49;;;;;;;9.95;4.82;;;15.60;99.90;;;;;;5060109;28;20209;-65
2024/04/06 07:33:15;;;;;;;11.45;4.63;;;15.70;99.90;;;;;;5059102;28;20644;-68
2024/04/06 07:35:41;;;;;;;8.90;4.75;;;15.80;99.90;;;;;;5057866;28;20186;-66
2024/04/06 07:38:07;;;;;;;9.55;4.30;;;15.90;99.90;;;;;;5054991;28;20677;-67
2024/04/06 07:40:32;;;;;;;8.77;3.67;;;16.10;99.90;;;;;;5059330;28;20206;-67
2024/04/06 07:42:59;;;;;;;6.18;3.78;;;16.30;99.90;;;;;;5058108;28;20226;-66
2024/04/06 07:45:25;;;;;;;7.43;4.30;;;16.40;99.90;;;;;;5057863;28;20642;-67
2024/04/06 07:47:52;;;;;;;7.35;3.80;;;16.50;99.90;;;;;;5057321;28;20197;-66
2024/04/06 07:50:18;;;;;;;5.95;3.53;;;16.60;99.90;;;;;;5025000;28;20209;-67
2024/04/06 07:52:44;;;;;;;5.47;3.38;;;16.60;99.90;;;;;;5060148;28;20190;-67
2024/04/06 07:55:11;;;;;;;6.00;3.22;;;16.70;99.90;;;;;;5057580;28;20190;-68
2024/04/06 07:57:37;;;;;;;8.40;3.97;;;16.70;99.90;;;;;;5058621;28;20187;-67
2024/04/06 08:00:03;;;;;;;5.70;3.33;;;16.70;99.90;;;;;;5058005;28;20256;-68
2024/04/06 08:02:30;;;;;;;6.90;3.70;;;16.80;99.90;;;;;;5058594;28;20200;-68
2024/04/06 08:04:56;;;;;;;7.50;3.10;;;16.80;99.90;;;;;;5057813;28;20281;-66
2024/04/06 08:07:23;;;;;;;5.97;3.10;;;16.90;99.90;;;;;;5055046;28;20223;-67
2024/04/06 08:09:49;;;;;;;5.35;2.25;;;16.90;99.90;;;;;;5059364;28;20194;-67
2024/04/06 08:12:14;;;;;;;8.00;3.08;;;17.00;99.90;;;;;;5039999;28;20912;-67
2024/04/06 08:14:40;;;;;;;7.22;2.90;;;17.10;99.90;;;;;;5059888;28;20274;-66
2024/04/06 08:17:06;;;;;;;5.93;2.83;;;17.30;99.90;;;;;;5055235;28;20183;-67
2024/04/06 08:19:31;;;;;;;4.97;2.70;;;17.40;99.90;;;;;;5059545;28;20188;-67
2024/04/06 08:21:57;;;;;;;6.28;3.10;;;17.50;99.90;;;;;;5057891;28;20364;-67
2024/04/06 08:24:23;;;;;;;5.65;2.70;;;17.60;99.90;;;;;;5058213;28;20194;-67
2024/04/06 08:26:49;;;;;;;6.32;2.78;;;17.70;99.90;;;;;;5056018;28;20727;-66
2024/04/06 08:29:15;;;;;;;4.18;2.72;;;17.80;99.90;;;;;;5059227;28;20217;-68
2024/04/06 08:31:41;;;;;;;4.57;2.63;;;17.90;99.90;;;;;;5056391;28;20205;-70
2024/04/06 08:34:08;;;;;;;6.63;3.40;;;17.90;99.90;;;;;;5040294;28;20658;-67
2024/04/06 08:36:34;;;;;;;6.68;3.13;;;18.00;99.90;;;;;;5040154;28;20729;-68
2024/04/06 08:39:01;;;;;;;5.53;2.67;;;18.10;99.90;;;;;;5041743;28;20704;-67
2024/04/06 08:41:28;;;;;;;6.75;3.33;;;18.20;99.90;;;;;;5037834;28;20254;-67
2024/04/06 08:43:55;;;;;;;7.50;2.55;;;18.40;99.90;;;;;;5057495;28;20276;-67
2024/04/06 08:46:22;;;;;;;7.13;2.40;;;18.50;99.90;;;;;;5036758;28;20190;-67
2024/04/06 08:48:49;;;;;;;5.05;2.60;;;18.70;99.90;;;;;;5059992;28;20289;-67
2024/04/06 08:51:17;;;;;;;3.88;2.35;;;18.90;99.90;;;;;;5057526;28;20235;-66
2024/04/06 08:53:43;;;;;;;5.78;2.83;;;19.00;99.90;;;;;;5058065;28;20667;-67
2024/04/06 08:56:09;;;;;;;7.20;2.30;;;19.10;99.90;;;;;;5055606;28;21275;-68
2024/04/06 08:58:35;;;;;;;5.03;2.05;;;19.20;99.90;;;;;;5058431;28;20182;-69
2024/04/06 09:01:02;;;;;;;6.85;2.95;;;19.30;99.90;;;;;;5059155;28;20241;-68
2024/04/06 09:03:28;;;;;;;4.57;2.40;;;19.40;99.90;;;;;;5057561;28;20277;-67
2024/04/06 09:05:54;;;;;;;9.02;2.40;;;19.50;99.90;;;;;;5056756;28;20186;-67
2024/04/06 09:08:20;;;;;;;4.50;2.35;;;19.50;99.90;;;;;;5039649;28;20232;-68
2024/04/06 09:10:47;;;;;;;7.18;2.15;;;19.60;99.90;;;;;;5039245;28;20187;-68
2024/04/06 09:13:14;;;;;;;4.82;1.98;;;19.60;99.90;;;;;;5058136;28;20244;-67
2024/04/06 09:15:40;;;;;;;6.80;2.15;;;19.60;99.90;;;;;;5021631;28;20207;-68
2024/04/06 09:18:06;;;;;;;5.45;2.00;;;19.70;99.90;;;;;;5058152;28;20641;-70
2024/04/06 09:20:32;;;;;;;7.63;3.50;;;19.80;99.90;;;;;;5056247;28;20226;-68
2024/04/06 09:22:58;;;;;;;11.02;4.75;;;19.90;99.90;;;;;;5056771;28;20210;-68
2024/04/06 09:25:24;;;;;;;10.10;4.20;;;20.00;99.90;;;;;;5058530;28;20187;-67
2024/04/06 09:27:50;;;;;;;7.43;2.67;;;20.00;99.90;;;;;;5063152;28;20179;-69
2024/04/06 09:30:17;;;;;;;3.40;2.17;;;20.10;99.90;;;;;;5043623;28;20670;-69
2024/04/06 09:32:46;;;;;;;9.57;3.85;;;20.10;99.90;;;;;;5039095;28;21273;-68
2024/04/06 09:35:12;;;;;;;6.13;2.40;;;20.10;99.90;;;;;;5060942;28;20205;-67
2024/04/06 09:37:39;;;;;;;4.45;2.33;;;20.10;99.90;;;;;;5060851;28;20195;-67
2024/04/06 09:40:08;;;;;;;3.33;1.85;;;20.10;99.90;;;;;;5062074;28;20594;-70
2024/04/06 09:42:38;;;;;;;5.60;2.10;;;20.00;99.90;;;;;;5056604;28;20231;-69
2024/04/06 09:45:06;;;;;;;5.28;2.85;;;20.10;99.90;;;;;;5056122;28;20190;-68
2024/04/06 09:47:32;;;;;;;6.07;2.15;;;20.10;99.90;;;;;;5061320;28;20178;-68
2024/04/06 09:49:58;;;;;;;5.38;2.25;;;20.00;99.90;;;;;;5057941;28;20184;-68
2024/04/06 09:52:26;;;;;;;5.95;2.22;;;20.00;99.90;;;;;;5041349;28;20190;-68
2024/04/06 09:54:52;;;;;;;5.30;2.20;;;20.10;99.90;;;;;;5060560;28;20184;-68
2024/04/06 09:57:19;;;;;;;2.65;1.90;;;20.10;99.90;;;;;;5059481;28;20248;-69
2024/04/06 09:59:45;;;;;;;6.55;2.25;;;20.10;99.90;;;;;;5058415;28;20646;-69
2024/04/06 10:02:21;;;;;;;5.43;2.70;;;20.20;99.90;;;;;;5059873;28;20630;-68
2024/04/06 10:04:54;;;;;;;7.20;2.10;;;20.30;99.90;;;;;;5060237;28;20174;-68
2024/04/06 10:07:27;;;;;;;4.10;2.10;;;20.30;99.90;;;;;;5062538;28;20197;-67
2024/04/06 10:10:29;;;;;;;3.75;2.10;;;20.40;99.90;;;;;;5054491;28;20233;-68
2024/04/06 10:12:57;;;;;;;4.80;2.28;;;20.40;99.90;;;;;;5043195;28;20177;-67
2024/04/06 10:15:22;;;;;;;5.43;2.53;;;20.50;99.90;;;;;;5059726;28;20209;-68
2024/04/06 10:17:53;;;;;;;6.75;2.20;;;20.50;99.90;;;;;;5041518;28;20654;-67
2024/04/06 10:20:25;;;;;;;5.88;2.10;;;20.60;99.90;;;;;;5042606;28;20296;-68
2024/04/06 10:22:53;;;;;;;4.72;2.10;;;20.60;99.90;;;;;;5044377;28;20256;-67
2024/04/06 10:25:26;;;;;;;4.63;2.22;;;20.70;99.90;;;;;;5056744;28;20530;-68
2024/04/06 10:28:00;;;;;;;7.55;2.30;;;20.80;99.90;;;;;;5058781;28;20553;-68
2024/04/06 10:30:27;;;;;;;6.18;2.38;;;20.80;99.90;;;;;;5060867;28;21282;-68
2024/04/06 10:32:53;;;;;;;3.90;2.10;;;20.90;99.90;;;;;;5057902;28;20194;-67
2024/04/06 10:35:18;;;;;;;5.00;2.45;;;20.90;99.90;;;;;;5060309;28;20195;-69
2024/04/06 10:37:46;;;;;;;5.00;2.00;;;21.00;99.90;;;;;;5058372;28;20189;-68
2024/04/06 10:40:13;;;;;;;3.97;2.30;;;21.10;99.90;;;;;;5043910;28;20214;-66
2024/04/06 10:42:42;;;;;;;6.53;2.78;;;21.20;99.90;;;;;;5039631;28;20763;-68
2024/04/06 10:45:11;;;;;;;3.85;1.83;;;21.30;99.90;;;;;;5061545;28;20599;-68
2024/04/06 10:47:37;;;;;;;5.25;2.10;;;21.40;99.90;;;;;;5039705;28;20621;-69
2024/04/06 10:50:06;;;;;;;6.53;2.17;;;21.40;99.90;;;;;;5061418;28;20262;-68
2024/04/06 10:52:32;;;;;;;5.97;2.33;;;21.50;99.90;;;;;;5056205;28;20183;-68
2024/04/06 10:55:02;;;;;;;6.22;2.80;;;21.60;99.90;;;;;;5058924;28;20297;-69
2024/04/06 10:57:29;;;;;;;7.88;1.90;;;21.80;99.90;;;;;;5057147;28;20297;-68
2024/04/06 10:59:56;;;;;;;6.13;2.20;;;21.90;99.90;;;;;;5042402;28;20251;-68
2024/04/06 11:02:22;;;;;;;5.47;3.50;;;22.00;99.90;;;;;;5058156;28;20214;-70
2024/04/06 11:04:49;;;;;;;4.47;1.83;;;22.10;99.90;;;;;;5059793;28;20218;-67
2024/04/06 11:07:14;;;;;;;5.32;2.40;;;22.20;99.90;;;;;;5060410;28;20277;-67
2024/04/06 11:09:40;;;;;;;3.60;2.00;;;22.40;99.90;;;;;;5061561;28;20325;-67
2024/04/06 11:12:06;;;;;;;6.43;2.20;;;22.50;99.90;;;;;;5060764;28;20197;-67
2024/04/06 11:14:32;;;;;;;4.25;2.88;;;22.70;99.90;;;;;;5059156;28;20198;-68
2024/04/06 11:17:00;;;;;;;5.03;2.10;;;22.80;99.90;;;;;;5059788;28;20252;-67
2024/04/06 11:19:26;;;;;;;8.93;2.40;;;22.90;99.90;;;;;;5059523;28;20637;-69
2024/04/06 11:21:52;;;;;;;2.83;1.90;;;23.00;99.90;;;;;;5060325;28;20222;-68
2024/04/06 11:24:18;;;;;;;4.40;2.38;;;23.20;99.90;;;;;;5041064;28;20240;-68
2024/04/06 11:26:43;;;;;;;5.88;3.00;;;23.30;99.90;;;;;;5059588;28;20590;-68
2024/04/06 11:29:13;;;;;;;9.98;4.53;;;23.40;99.90;;;;;;5057739;28;20734;-69
2024/04/06 11:31:39;;;;;;;5.40;2.20;;;23.50;99.90;;;;;;5041306;28;20277;-69
2024/04/06 11:34:04;;;;;;;7.28;2.65;;;23.60;99.90;;;;;;5058805;28;20294;-66
2024/04/06 11:36:30;;;;;;;3.88;2.10;;;23.70;99.90;;;;;;5061836;28;20301;-69
2024/04/06 11:38:56;;;;;;;4.40;1.90;;;23.80;99.90;;;;;;5059639;28;20194;-69
2024/04/06 11:41:22;;;;;;;4.07;1.98;;;23.80;99.90;;;;;;5059107;28;20238;-69
2024/04/06 11:43:47;;;;;;;5.32;3.05;;;23.80;99.90;;;;;;5059344;28;20205;-68
2024/04/06 11:46:13;;;;;;;5.82;2.25;;;23.90;99.90;;;;;;5060318;28;20195;-68
2024/04/06 11:48:40;;;;;;;5.97;2.20;;;24.00;99.90;;;;;;5059376;28;20211;-67
2024/04/06 11:51:06;;;;;;;7.82;3.70;;;24.00;99.90;;;;;;5019947;28;20214;-69
2024/04/06 11:53:34;;;;;;;5.10;2.15;;;24.00;99.90;;;;;;5033845;28;20198;-69
2024/04/06 11:56:01;;;;;;;7.30;2.05;;;24.10;99.90;;;;;;5059070;28;20542;-68
2024/04/06 11:58:27;;;;;;;3.55;1.90;;;24.00;99.90;;;;;;5059131;28;20219;-69
2024/04/06 12:00:53;;;;;;;6.85;2.03;;;24.10;99.90;;;;;;5058824;28;20210;-69
2024/04/06 12:03:19;;;;;;;10.32;2.05;;;24.10;99.90;;;;;;5042256;28;20285;-66
2024/04/06 12:05:45;;;;;;;4.40;1.98;;;24.10;99.90;;;;;;5059558;28;20197;-68
2024/04/06 12:08:11;;;;;;;4.70;1.95;;;24.10;99.90;;;;;;5057487;28;20253;-67
2024/04/06 12:10:37;;;;;;;9.52;3.38;;;24.20;99.90;;;;;;5034756;28;20226;-66
2024/04/06 12:13:03;;;;;;;5.90;2.30;;;24.20;99.90;;;;;;5041192;28;20198;-68
2024/04/06 12:15:29;;;;;;;8.93;4.78;;;24.20;99.90;;;;;;5060409;28;20202;-66
2024/04/06 12:17:55;;;;;;;6.93;3.45;;;24.30;99.90;;;;;;5057576;28;20198;-68
2024/04/06 12:20:21;;;;;;;4.22;1.90;;;24.30;99.90;;;;;;5060682;28;20669;-68
2024/04/06 12:22:47;;;;;;;4.28;1.90;;;24.40;99.90;;;;;;5023811;28;20201;-69
2024/04/06 12:25:12;;;;;;;4.82;1.80;;;24.50;99.90;;;;;;5025502;28;20557;-68
2024/04/06 12:27:38;;;;;;;4.80;2.10;;;24.50;99.90;;;;;;5039156;28;20665;-69
2024/04/06 12:30:09;;;;;;;4.38;2.10;;;24.50;99.90;;;;;;5060533;28;20222;-67
2024/04/06 12:32:35;;;;;;;5.57;2.33;;;24.50;99.90;;;;;;5057814;28;20186;-67
2024/04/06 12:35:01;;;;;;;7.50;3.47;;;24.60;99.90;;;;;;5058909;28;20194;-66
2024/04/06 12:37:27;;;;;;;3.28;2.00;;;24.60;99.90;;;;;;5058872;28;20179;-67